Time;durP1;ratioP1;P1;durP2;ratioP2;P2;SDS_P1;SDS_P2;PMS_P1;PMS_P2;Temp;Humidity;BMP_temperature;BMP_pressure;BME280_temperature;BME280_humidity;BME280_pressure;Samples;Min_cycle;Max_cycle;Signal;HPM_P1;HPM_P2
2023/07/25 00:00:10;;;;;;;6.90;3.67;;;16.40;99.90;;;;;;4977668;28;20204;-83
2023/07/25 00:02:36;;;;;;;10.97;2.97;;;16.40;99.90;;;;;;4981162;28;20275;-83
2023/07/25 00:05:03;;;;;;;5.77;3.00;;;16.30;99.90;;;;;;4983732;28;20992;-83
2023/07/25 00:07:28;;;;;;;6.93;3.30;;;16.30;99.90;;;;;;4978588;28;20251;-83
2023/07/25 00:09:54;;;;;;;6.83;2.63;;;16.30;99.90;;;;;;4978660;28;21768;-83
2023/07/25 00:12:19;;;;;;;6.97;3.47;;;16.30;99.90;;;;;;4980908;28;20760;-83
2023/07/25 00:14:45;;;;;;;5.13;3.00;;;16.30;99.90;;;;;;5007082;28;20217;-84
2023/07/25 00:17:10;;;;;;;5.73;2.73;;;16.30;99.90;;;;;;4976034;28;20275;-84
2023/07/25 00:19:36;;;;;;;6.83;2.77;;;16.40;99.90;;;;;;4984460;28;20177;-83
2023/07/25 00:22:01;;;;;;;4.90;3.37;;;16.40;99.90;;;;;;4981627;28;20189;-83
2023/07/25 00:24:27;;;;;;;10.87;3.50;;;16.50;99.90;;;;;;4986183;28;20652;-84
2023/07/25 00:26:52;;;;;;;5.50;3.03;;;16.50;99.90;;;;;;4976233;28;20211;-83
2023/07/25 00:29:18;;;;;;;12.10;2.93;;;16.50;99.90;;;;;;4980559;28;20192;-85
2023/07/25 00:31:43;;;;;;;8.70;3.47;;;16.60;99.90;;;;;;4978763;28;20185;-82
2023/07/25 00:34:09;;;;;;;8.50;3.23;;;16.60;91.00;;;;;;4979933;28;20656;-82
2023/07/25 00:36:34;;;;;;;5.33;3.07;;;16.60;53.00;;;;;;4982268;28;20200;-83
2023/07/25 00:39:00;;;;;;;9.23;3.40;;;16.60;17.60;;;;;;4986778;28;20188;-84
2023/07/25 00:41:25;;;;;;;6.63;3.73;;;16.60;11.40;;;;;;4975380;28;20190;-84
2023/07/25 00:43:51;;;;;;;5.03;3.10;;;16.70;1.00;;;;;;4975170;28;20655;-83
2023/07/25 00:46:17;;;;;;;9.30;3.20;;;16.70;1.00;;;;;;4980839;28;20678;-83
2023/07/25 00:48:44;;;;;;;4.60;2.90;;;16.70;1.00;;;;;;4974254;28;20660;-83
2023/07/25 00:51:10;;;;;;;6.80;3.23;;;16.70;1.00;;;;;;5012173;28;20482;-83
2023/07/25 00:53:36;;;;;;;4.23;3.20;;;16.70;1.00;;;;;;4982136;28;20450;-83
2023/07/25 00:56:03;;;;;;;6.70;3.00;;;16.70;1.00;;;;;;4975689;28;20461;-83
2023/07/25 00:58:29;;;;;;;5.60;2.90;;;16.70;1.00;;;;;;4979310;28;20498;-83
2023/07/25 01:01:06;;;;;;;4.17;3.63;;;16.70;1.00;;;;;;4978099;28;20789;-83
2023/07/25 01:03:37;;;;;;;6.07;3.43;;;16.70;1.00;;;;;;4979224;28;20459;-83
2023/07/25 01:06:04;;;;;;;6.50;3.20;;;16.70;1.00;;;;;;4985526;28;20448;-84
2023/07/25 01:08:30;;;;;;;6.33;3.73;;;16.80;1.00;;;;;;4994434;28;20472;-81
2023/07/25 01:10:56;;;;;;;3.40;3.10;;;16.80;1.00;;;;;;4979093;28;20445;-84
2023/07/25 01:13:22;;;;;;;9.73;4.10;;;16.80;1.00;;;;;;4977235;28;20244;-83
2023/07/25 01:15:53;;;;;;;6.40;3.50;;;16.70;1.00;;;;;;4981433;28;20204;-84
2023/07/25 01:18:19;;;;;;;8.00;3.37;;;16.80;1.00;;;;;;4982783;28;20504;-83
2023/07/25 01:20:47;;;;;;;8.37;4.07;;;16.80;1.00;;;;;;4976545;28;21102;-84
2023/07/25 01:23:13;;;;;;;3.73;2.77;;;16.70;1.00;;;;;;4975221;28;20754;-84
2023/07/25 01:25:39;;;;;;;6.37;3.60;;;16.80;1.00;;;;;;4978277;28;20439;-84
2023/07/25 01:28:04;;;;;;;5.50;3.80;;;16.70;1.00;;;;;;4972840;28;20471;-83
2023/07/25 01:30:30;;;;;;;7.33;3.60;;;16.70;1.00;;;;;;4971082;28;20331;-84
2023/07/25 01:32:56;;;;;;;4.40;3.40;;;16.70;1.00;;;;;;4976131;28;20192;-84
2023/07/25 01:35:22;;;;;;;14.23;4.50;;;16.70;1.00;;;;;;4977754;28;20478;-83
2023/07/25 01:37:48;;;;;;;7.47;4.00;;;16.60;1.00;;;;;;4986847;28;20459;-83
2023/07/25 01:40:14;;;;;;;7.43;3.30;;;16.60;1.00;;;;;;4984612;28;20428;-83
2023/07/25 01:42:39;;;;;;;8.10;3.93;;;16.60;1.00;;;;;;4974321;28;20177;-83
2023/07/25 01:45:05;;;;;;;6.23;3.87;;;16.60;1.00;;;;;;4988793;28;20948;-83
2023/07/25 01:47:31;;;;;;;6.77;4.70;;;16.60;1.00;;;;;;4988644;28;20215;-83
2023/07/25 01:49:57;;;;;;;9.40;4.63;;;16.60;1.00;;;;;;4980108;28;20447;-83
2023/07/25 01:52:22;;;;;;;11.37;4.73;;;16.60;1.00;;;;;;4969744;28;20280;-83
2023/07/25 01:54:49;;;;;;;6.60;3.87;;;16.60;1.00;;;;;;4974106;28;20292;-83
2023/07/25 01:57:15;;;;;;;7.30;4.00;;;16.60;1.00;;;;;;5015724;28;20207;-83
2023/07/25 01:59:40;;;;;;;6.20;3.97;;;16.60;1.00;;;;;;4974545;28;20436;-83
2023/07/25 02:02:06;;;;;;;4.30;3.63;;;16.60;1.00;;;;;;4974710;28;20185;-84
2023/07/25 02:04:31;;;;;;;6.70;3.40;;;16.60;1.00;;;;;;4977251;28;20189;-84
2023/07/25 02:07:00;;;;;;;9.43;4.60;;;16.60;1.00;;;;;;4974217;28;20212;-83
2023/07/25 02:09:25;;;;;;;7.70;4.70;;;16.60;1.00;;;;;;4982919;28;20691;-83
2023/07/25 02:11:51;;;;;;;8.60;4.20;;;16.60;1.00;;;;;;4975412;28;20455;-83
2023/07/25 02:14:16;;;;;;;9.20;4.13;;;16.60;1.00;;;;;;4974911;28;20191;-83
2023/07/25 02:16:42;;;;;;;7.17;3.90;;;16.60;8.50;;;;;;4983356;28;20209;-83
2023/07/25 02:19:07;;;;;;;7.70;4.40;;;16.60;1.00;;;;;;4987839;28;20197;-83
2023/07/25 02:21:34;;;;;;;6.60;4.17;;;16.60;1.00;;;;;;4985692;28;20568;-83
2023/07/25 02:24:00;;;;;;;8.43;4.43;;;16.60;19.70;;;;;;4979756;28;20661;-83
2023/07/25 02:26:25;;;;;;;8.60;4.97;;;16.60;28.90;;;;;;4978676;28;20461;-83
2023/07/25 02:28:51;;;;;;;7.80;4.20;;;16.60;35.80;;;;;;4991937;28;20450;-83
2023/07/25 02:31:17;;;;;;;10.20;5.80;;;16.60;43.50;;;;;;4993050;28;20198;-83
2023/07/25 02:33:42;;;;;;;7.90;4.87;;;16.60;22.20;;;;;;4979141;28;20186;-83
2023/07/25 02:36:08;;;;;;;12.43;5.60;;;16.50;27.20;;;;;;4985365;28;20212;-83
2023/07/25 02:38:33;;;;;;;9.40;5.20;;;16.50;49.20;;;;;;4977152;28;20190;-83
2023/07/25 02:40:59;;;;;;;29.83;5.50;;;16.50;67.50;;;;;;4978978;28;20204;-84
2023/07/25 02:43:24;;;;;;;9.87;4.60;;;16.50;31.60;;;;;;4982767;28;20875;-84
2023/07/25 02:45:51;;;;;;;9.93;4.63;;;16.50;22.30;;;;;;4977933;28;20200;-83
2023/07/25 02:48:17;;;;;;;8.70;3.93;;;16.50;43.40;;;;;;4987621;28;20206;-82
2023/07/25 02:50:43;;;;;;;7.80;4.40;;;16.50;19.20;;;;;;4981787;28;20444;-83
2023/07/25 02:53:09;;;;;;;11.63;4.77;;;16.50;3.80;;;;;;4977123;28;20467;-83
2023/07/25 02:55:34;;;;;;;7.33;5.10;;;16.40;3.10;;;;;;4977918;28;20228;-82
2023/07/25 02:58:00;;;;;;;7.90;5.33;;;16.50;5.00;;;;;;4989700;28;20232;-81
2023/07/25 03:00:28;;;;;;;11.70;5.40;;;16.40;1.00;;;;;;4978467;28;20191;-83
2023/07/25 03:02:56;;;;;;;7.30;5.17;;;16.40;1.00;;;;;;4997585;28;20184;-83
2023/07/25 03:05:21;;;;;;;7.40;4.37;;;16.40;1.00;;;;;;4981978;28;20435;-84
2023/07/25 03:07:47;;;;;;;12.20;5.07;;;16.40;1.00;;;;;;4984904;28;20797;-83
2023/07/25 03:10:13;;;;;;;6.63;4.50;;;16.40;1.00;;;;;;4981676;28;20180;-83
2023/07/25 03:12:38;;;;;;;12.33;4.80;;;16.30;1.00;;;;;;4994141;28;20251;-83
2023/07/25 03:15:04;;;;;;;7.67;5.27;;;16.30;1.00;;;;;;4982462;28;20209;-84
2023/07/25 03:17:30;;;;;;;10.60;5.00;;;16.30;1.00;;;;;;4977713;28;20225;-83
2023/07/25 03:19:56;;;;;;;9.70;5.30;;;16.30;1.00;;;;;;4981149;28;20441;-83
2023/07/25 03:22:22;;;;;;;6.20;5.10;;;16.20;1.00;;;;;;4977153;28;20431;-83
2023/07/25 03:24:48;;;;;;;7.37;5.00;;;16.20;1.00;;;;;;4976243;28;20220;-83
2023/07/25 03:27:17;;;;;;;11.07;5.43;;;16.20;1.00;;;;;;4976518;28;20235;-83
2023/07/25 03:29:43;;;;;;;9.10;5.40;;;16.10;28.80;;;;;;4977162;28;20875;-82
2023/07/25 03:32:09;;;;;;;11.73;5.90;;;16.10;33.50;;;;;;4996839;28;20446;-83
2023/07/25 03:34:34;;;;;;;11.37;5.40;;;16.10;26.60;;;;;;4976769;28;20515;-83
2023/07/25 03:37:00;;;;;;;9.67;5.80;;;16.10;53.90;;;;;;4976220;28;20196;-83
2023/07/25 03:39:28;;;;;;;7.90;5.67;;;16.10;59.60;;;;;;4972792;28;20667;-84
2023/07/25 03:41:53;;;;;;;6.33;4.93;;;16.10;39.40;;;;;;4977191;28;20261;-83
2023/07/25 03:44:20;;;;;;;10.63;6.10;;;16.10;41.50;;;;;;4976386;28;20455;-84
2023/07/25 03:46:45;;;;;;;8.43;5.10;;;16.00;12.80;;;;;;4980793;28;20199;-83
2023/07/25 03:49:12;;;;;;;5.90;4.60;;;16.00;3.10;;;;;;5006700;28;20432;-84
2023/07/25 03:51:38;;;;;;;11.77;5.40;;;16.00;7.50;;;;;;4987918;28;20181;-84
2023/07/25 03:54:04;;;;;;;15.93;5.83;;;15.90;6.50;;;;;;4996887;28;20456;-83
2023/07/25 03:56:30;;;;;;;8.57;5.63;;;15.90;1.00;;;;;;5007028;28;20228;-83
2023/07/25 03:58:56;;;;;;;11.07;5.70;;;15.80;1.00;;;;;;4990894;28;20531;-84
2023/07/25 04:01:21;;;;;;;13.33;5.83;;;15.70;1.00;;;;;;4996630;28;20242;-84
2023/07/25 04:03:47;;;;;;;10.70;5.57;;;15.70;11.90;;;;;;5019381;28;20903;-84
2023/07/25 04:06:13;;;;;;;7.07;5.27;;;15.70;21.10;;;;;;4989529;28;20422;-83
2023/07/25 04:08:38;;;;;;;12.23;5.47;;;15.60;38.70;;;;;;4986675;28;20715;-84
2023/07/25 04:11:04;;;;;;;11.40;5.30;;;15.60;84.40;;;;;;5008637;28;20200;-84
2023/07/25 04:13:29;;;;;;;14.07;6.40;;;15.60;89.40;;;;;;4991642;28;20195;-83
2023/07/25 04:15:57;;;;;;;6.83;5.63;;;15.60;98.50;;;;;;4993483;28;20206;-84
2023/07/25 04:18:23;;;;;;;8.90;6.00;;;15.50;99.10;;;;;;4985738;28;20217;-84
2023/07/25 04:20:48;;;;;;;12.33;5.73;;;15.60;99.90;;;;;;5001754;28;20465;-84
2023/07/25 04:23:15;;;;;;;10.00;6.43;;;15.60;79.60;;;;;;4990101;28;20196;-83
2023/07/25 04:25:40;;;;;;;12.00;5.50;;;15.70;45.60;;;;;;4984725;28;20198;-84
2023/07/25 04:28:06;;;;;;;11.03;6.37;;;15.70;20.40;;;;;;4990407;28;20452;-83
2023/07/25 04:30:32;;;;;;;9.77;5.93;;;15.80;1.00;;;;;;4992104;28;20187;-84
2023/07/25 04:32:57;;;;;;;9.33;6.20;;;15.90;1.00;;;;;;4992762;28;20444;-83
2023/07/25 04:35:23;;;;;;;7.43;5.60;;;16.00;1.00;;;;;;4992396;28;20208;-84
2023/07/25 04:37:48;;;;;;;10.30;5.70;;;16.10;1.00;;;;;;4987245;28;20601;-84
2023/07/25 04:40:14;;;;;;;10.03;5.53;;;16.10;1.00;;;;;;4986852;28;20192;-84
2023/07/25 04:42:40;;;;;;;10.83;5.50;;;16.20;1.00;;;;;;4986528;28;20182;-84
2023/07/25 04:45:06;;;;;;;9.37;5.20;;;16.40;99.90;;;;;;4994716;28;20186;-83
2023/07/25 04:47:31;;;;;;;10.30;5.50;;;16.60;99.90;;;;;;4988118;28;20210;-84
2023/07/25 04:49:57;;;;;;;8.30;5.40;;;16.80;6.40;;;;;;4983300;28;20866;-84
2023/07/25 04:52:24;;;;;;;10.83;5.20;;;17.00;99.90;;;;;;4975409;28;20191;-84
2023/07/25 04:54:52;;;;;;;9.83;5.30;;;17.20;1.00;;;;;;4979670;28;20247;-84
2023/07/25 04:57:18;;;;;;;16.63;5.43;;;17.40;1.00;;;;;;4987237;28;20966;-83
2023/07/25 04:59:43;;;;;;;11.83;5.07;;;17.50;1.00;;;;;;4984116;28;20447;-82
2023/07/25 05:02:09;;;;;;;9.90;4.87;;;17.60;1.00;;;;;;4986735;28;20183;-83
2023/07/25 05:04:34;;;;;;;10.77;4.70;;;17.80;99.90;;;;;;4984315;28;20188;-84
2023/07/25 05:07:00;;;;;;;12.10;4.90;;;18.00;99.90;;;;;;4980243;28;20296;-84
2023/07/25 05:09:25;;;;;;;10.30;5.30;;;18.10;24.80;;;;;;4981076;28;20224;-83
2023/07/25 05:11:51;;;;;;;8.47;4.60;;;18.20;1.00;;;;;;4989770;28;20184;-85
2023/07/25 05:14:17;;;;;;;9.57;4.80;;;18.20;99.90;;;;;;4989063;28;20277;-83
2023/07/25 05:16:43;;;;;;;7.50;4.80;;;18.20;99.90;;;;;;4998626;28;20206;-84
2023/07/25 05:19:09;;;;;;;8.30;4.73;;;18.20;99.90;;;;;;4976108;28;20436;-84
2023/07/25 05:21:34;;;;;;;6.93;4.43;;;18.10;99.90;;;;;;4976633;28;20218;-83
2023/07/25 05:24:00;;;;;;;15.67;5.70;;;18.10;99.90;;;;;;4977131;28;20210;-83
2023/07/25 05:26:25;;;;;;;11.33;4.70;;;17.90;99.90;;;;;;4996033;28;20703;-84
2023/07/25 05:28:54;;;;;;;8.63;4.13;;;17.80;99.90;;;;;;4974305;28;20802;-84
2023/07/25 05:31:19;;;;;;;6.47;4.30;;;17.70;99.90;;;;;;4975892;28;20202;-84
2023/07/25 05:33:45;;;;;;;11.07;5.30;;;17.60;1.00;;;;;;4976146;28;20442;-83
2023/07/25 05:36:10;;;;;;;6.90;4.70;;;17.50;1.00;;;;;;4974969;28;20669;-83
2023/07/25 05:38:36;;;;;;;7.33;4.40;;;17.50;1.00;;;;;;4977258;28;20180;-84
2023/07/25 05:41:02;;;;;;;5.87;4.73;;;17.50;1.00;;;;;;4980365;28;20216;-84
2023/07/25 05:43:28;;;;;;;6.87;5.07;;;17.60;1.00;;;;;;4976601;28;20194;-84
2023/07/25 05:45:54;;;;;;;11.23;5.37;;;17.60;1.00;;;;;;4986263;28;20448;-84
2023/07/25 05:48:19;;;;;;;7.20;4.50;;;17.70;1.00;;;;;;4982687;28;20210;-84
2023/07/25 05:50:51;;;;;;;10.13;5.00;;;17.80;99.90;;;;;;4986128;28;22008;-84
2023/07/25 05:53:17;;;;;;;8.80;4.83;;;17.90;99.90;;;;;;4983089;28;20190;-84
2023/07/25 05:55:46;;;;;;;11.47;5.00;;;18.10;99.90;;;;;;4986119;28;20557;-83
2023/07/25 05:58:18;;;;;;;9.53;4.70;;;18.30;45.90;;;;;;5028459;28;20573;-84
2023/07/25 06:00:44;;;;;;;9.53;4.90;;;18.60;1.00;;;;;;5000903;28;20467;-84
2023/07/25 06:03:12;;;;;;;9.10;4.67;;;18.90;99.90;;;;;;4984783;28;20439;-84
2023/07/25 06:05:38;;;;;;;8.90;4.47;;;19.60;99.90;;;;;;4974818;28;20462;-83
2023/07/25 06:08:04;;;;;;;11.87;4.67;;;20.60;1.00;;;;;;4982567;28;20983;-85
2023/07/25 06:10:29;;;;;;;10.53;4.10;;;21.30;1.00;;;;;;4986981;28;20438;-84
2023/07/25 06:12:55;;;;;;;6.60;4.37;;;22.30;99.90;;;;;;4995429;28;20192;-84
2023/07/25 06:15:21;;;;;;;6.83;3.40;;;24.00;99.90;;;;;;4987258;28;20294;-84
2023/07/25 06:17:46;;;;;;;9.37;4.33;;;24.90;99.90;;;;;;5001488;28;20218;-85
2023/07/25 06:20:12;;;;;;;7.30;3.20;;;25.00;99.90;;;;;;5056575;28;20204;-84
2023/07/25 06:22:38;;;;;;;10.50;3.90;;;25.40;99.90;;;;;;4979819;28;20208;-84
2023/07/25 06:25:05;;;;;;;7.40;3.87;;;26.00;99.90;;;;;;4978881;28;20449;-84
2023/07/25 06:27:31;;;;;;;7.47;3.40;;;26.70;99.90;;;;;;4988503;28;20595;-82
2023/07/25 06:29:56;;;;;;;6.90;3.67;;;27.90;99.90;;;;;;4982530;28;20442;-83
2023/07/25 06:32:22;;;;;;;7.00;2.57;;;29.70;99.90;;;;;;5057705;28;20200;-82
2023/07/25 06:34:48;;;;;;;10.10;2.57;;;32.10;1.00;;;;;;5068838;28;20236;-83
2023/07/25 06:37:13;;;;;;;4.70;2.43;;;34.50;1.00;;;;;;5005566;28;20478;-82
2023/07/25 06:39:39;;;;;;;11.47;2.73;;;37.20;1.00;;;;;;4963187;28;20208;-83
2023/07/25 06:42:06;;;;;;;6.50;1.90;;;39.60;1.00;;;;;;4977944;28;20191;-83
2023/07/25 06:44:32;;;;;;;6.93;2.10;;;41.70;1.00;;;;;;4977438;28;20185;-83
2023/07/25 06:46:57;;;;;;;6.37;2.57;;;43.40;1.00;;;;;;4984318;28;20796;-83
2023/07/25 06:49:23;;;;;;;7.60;1.93;;;44.20;1.00;;;;;;4978579;28;20180;-83
2023/07/25 06:51:48;;;;;;;5.43;1.90;;;43.20;1.00;;;;;;4966008;28;20177;-82
2023/07/25 06:54:14;;;;;;;6.73;1.97;;;42.00;1.00;;;;;;4978606;28;20210;-83
2023/07/25 06:56:40;;;;;;;5.50;1.97;;;41.40;1.00;;;;;;4977139;28;20204;-82
2023/07/25 06:59:05;;;;;;;9.83;1.90;;;40.70;1.00;;;;;;4974405;28;20295;-83
2023/07/25 07:01:31;;;;;;;9.03;2.33;;;39.80;1.00;;;;;;4974471;28;20685;-82
2023/07/25 07:03:56;;;;;;;4.77;2.10;;;38.30;1.00;;;;;;4982843;28;20204;-82
2023/07/25 07:06:22;;;;;;;6.40;2.10;;;36.30;1.00;;;;;;4978704;28;20220;-82
2023/07/25 07:08:48;;;;;;;7.50;2.23;;;34.50;1.00;;;;;;4985198;28;20196;-83
2023/07/25 07:11:13;;;;;;;5.50;2.77;;;32.90;1.00;;;;;;4978964;28;20181;-82
2023/07/25 07:13:39;;;;;;;7.23;2.90;;;31.30;1.00;;;;;;4973003;28;20263;-83
2023/07/25 07:16:04;;;;;;;5.13;2.80;;;29.90;99.90;;;;;;4990038;28;20301;-83
2023/07/25 07:18:30;;;;;;;4.30;3.00;;;28.70;36.00;;;;;;4984262;28;20176;-84
2023/07/25 07:20:55;;;;;;;8.20;3.20;;;27.80;36.50;;;;;;4985987;28;20280;-82
2023/07/25 07:23:21;;;;;;;10.77;2.93;;;27.20;35.30;;;;;;4986318;28;20207;-83
2023/07/25 07:25:46;;;;;;;12.17;2.97;;;26.90;37.10;;;;;;4987417;28;20276;-82
2023/07/25 07:28:13;;;;;;;7.73;3.10;;;26.90;38.70;;;;;;4991057;28;20246;-82
2023/07/25 07:30:38;;;;;;;10.20;3.27;;;27.00;40.40;;;;;;4988207;28;20188;-82
2023/07/25 07:33:04;;;;;;;11.83;4.10;;;26.70;40.80;;;;;;4978055;28;20522;-83
2023/07/25 07:35:30;;;;;;;5.90;3.03;;;26.20;40.40;;;;;;4983922;28;20200;-83
2023/07/25 07:37:55;;;;;;;5.23;2.80;;;25.70;53.50;;;;;;4985413;28;20638;-83
2023/07/25 07:40:21;;;;;;;4.13;2.47;;;25.30;41.80;;;;;;4976358;28;20271;-82
2023/07/25 07:42:46;;;;;;;8.50;3.03;;;24.90;42.40;;;;;;4990842;28;20187;-81
2023/07/25 07:45:12;;;;;;;7.00;3.27;;;24.50;43.20;;;;;;4987766;28;20211;-82
2023/07/25 07:47:37;;;;;;;7.90;3.77;;;24.00;44.40;;;;;;4986602;28;20210;-82
2023/07/25 07:50:03;;;;;;;7.00;3.27;;;23.70;45.60;;;;;;4981544;28;20216;-82
2023/07/25 07:52:28;;;;;;;8.03;3.30;;;23.60;49.00;;;;;;4990603;28;20187;-82
2023/07/25 07:54:55;;;;;;;5.33;2.70;;;23.50;59.60;;;;;;4983135;28;20247;-83
2023/07/25 07:57:20;;;;;;;7.17;3.23;;;23.50;54.40;;;;;;5018078;28;20307;-82
2023/07/25 07:59:46;;;;;;;7.63;3.43;;;23.50;57.00;;;;;;4985992;28;20481;-83
2023/07/25 08:02:11;;;;;;;7.67;4.00;;;23.40;58.60;;;;;;4989172;28;20250;-82
2023/07/25 08:04:37;;;;;;;7.30;3.00;;;23.40;61.10;;;;;;4999304;28;20200;-82
2023/07/25 08:07:02;;;;;;;7.13;3.33;;;23.40;64.80;;;;;;4998532;28;20239;-83
2023/07/25 08:09:28;;;;;;;7.57;2.50;;;23.40;69.00;;;;;;4999570;28;20534;-83
2023/07/25 08:11:53;;;;;;;7.27;2.60;;;23.60;70.20;;;;;;4999558;28;20171;-82
2023/07/25 08:14:19;;;;;;;10.97;2.67;;;23.60;70.80;;;;;;4997718;28;20193;-83
2023/07/25 08:16:44;;;;;;;9.60;2.53;;;23.80;72.30;;;;;;5015632;28;20677;-82
2023/07/25 08:19:10;;;;;;;5.70;2.13;;;24.30;76.10;;;;;;5007745;28;20236;-81
2023/07/25 08:21:36;;;;;;;6.00;1.70;;;25.10;79.40;;;;;;4998653;28;20202;-82
2023/07/25 08:24:01;;;;;;;5.13;1.70;;;26.20;82.10;;;;;;4998426;28;20594;-83
2023/07/25 08:26:27;;;;;;;5.23;1.97;;;26.50;82.20;;;;;;4997287;28;20692;-82
2023/07/25 08:28:52;;;;;;;8.13;2.53;;;26.70;79.90;;;;;;4999215;28;20501;-82
2023/07/25 08:31:18;;;;;;;9.43;2.33;;;26.70;78.60;;;;;;4998253;28;20175;-82
2023/07/25 08:33:44;;;;;;;5.77;1.97;;;26.50;76.50;;;;;;4998109;28;20233;-83
2023/07/25 08:36:10;;;;;;;8.73;2.03;;;26.30;73.80;;;;;;4998771;28;20243;-82
2023/07/25 08:38:36;;;;;;;4.40;1.93;;;26.30;74.80;;;;;;4999113;28;20407;-82
2023/07/25 08:41:25;;;;;;;3.30;1.23;;;26.40;74.20;;;;;;4997066;28;20419;-81
2023/07/25 08:43:55;;;;;;;12.80;2.60;;;26.50;72.30;;;;;;4996529;28;20493;-82
2023/07/25 08:46:24;;;;;;;9.20;1.73;;;26.60;71.90;;;;;;5036670;28;20459;-82
2023/07/25 08:48:55;;;;;;;5.80;2.00;;;26.80;70.90;;;;;;5079311;28;20427;-82
2023/07/25 08:51:22;;;;;;;6.30;2.10;;;26.70;68.80;;;;;;5081570;28;20402;-83
2023/07/25 08:54:10;;;;;;;4.70;2.43;;;26.30;67.60;;;;;;5079652;28;20452;-82
2023/07/25 08:56:38;;;;;;;5.27;1.83;;;26.00;65.50;;;;;;5078994;28;20423;-83
2023/07/25 08:59:05;;;;;;;5.70;1.60;;;25.90;65.20;;;;;;5080861;28;20494;-83
2023/07/25 09:01:31;;;;;;;8.37;1.80;;;25.80;63.10;;;;;;5079604;28;20449;-83
2023/07/25 09:04:00;;;;;;;7.60;2.10;;;25.80;62.50;;;;;;5079710;28;20443;-82
2023/07/25 09:06:27;;;;;;;4.70;1.77;;;25.60;62.30;;;;;;5080343;28;20459;-82
2023/07/25 09:08:53;;;;;;;5.53;1.80;;;25.60;62.60;;;;;;5080731;28;20418;-82
2023/07/25 09:11:20;;;;;;;5.70;1.60;;;25.60;60.80;;;;;;5080350;28;20399;-82
2023/07/25 09:13:50;;;;;;;6.27;1.73;;;25.50;59.70;;;;;;5079767;28;20403;-82
2023/07/25 09:16:15;;;;;;;4.17;1.80;;;25.40;59.10;;;;;;5037760;28;20431;-82
2023/07/25 09:18:41;;;;;;;3.50;1.30;;;25.50;59.60;;;;;;5078263;28;20441;-81
2023/07/25 09:21:07;;;;;;;7.80;1.67;;;25.60;60.50;;;;;;5078796;28;20181;-81
2023/07/25 09:23:33;;;;;;;7.20;1.70;;;25.70;61.20;;;;;;5078828;28;20411;-82
2023/07/25 09:26:09;;;;;;;5.13;1.73;;;25.80;62.00;;;;;;5079019;28;20465;-81
2023/07/25 09:28:34;;;;;;;3.10;1.80;;;25.80;61.50;;;;;;5079506;28;20196;-83
2023/07/25 09:31:05;;;;;;;6.53;1.73;;;26.00;62.60;;;;;;5079151;28;20431;-82
2023/07/25 09:33:30;;;;;;;6.20;1.97;;;26.60;65.20;;;;;;5080092;28;20268;-83
2023/07/25 09:35:58;;;;;;;5.50;2.10;;;27.00;66.10;;;;;;5078954;28;20488;-81
2023/07/25 09:38:24;;;;;;;5.40;1.80;;;27.00;67.20;;;;;;5079273;28;20242;-82
2023/07/25 09:40:50;;;;;;;3.90;2.20;;;26.90;65.20;;;;;;5079044;28;20501;-82
2023/07/25 09:43:27;;;;;;;5.23;1.80;;;26.50;61.00;;;;;;5080301;28;20307;-82
2023/07/25 09:45:54;;;;;;;9.47;2.40;;;25.90;58.60;;;;;;5053125;28;20230;-82
2023/07/25 09:48:21;;;;;;;6.80;1.97;;;25.30;57.60;;;;;;4997398;28;20537;-82
2023/07/25 09:50:47;;;;;;;4.20;2.00;;;25.10;56.80;;;;;;4997228;28;20418;-81
2023/07/25 09:53:17;;;;;;;4.60;1.80;;;25.10;57.60;;;;;;4996093;28;20912;-81
2023/07/25 09:55:43;;;;;;;5.63;2.07;;;25.30;58.00;;;;;;4996557;28;20228;-81
2023/07/25 09:58:09;;;;;;;4.73;1.83;;;26.10;61.30;;;;;;4998384;28;20441;-82
2023/07/25 10:00:35;;;;;;;8.37;2.30;;;26.80;65.60;;;;;;4997734;28;20415;-82
2023/07/25 10:03:01;;;;;;;4.30;2.30;;;27.20;67.60;;;;;;4997952;28;20172;-82
2023/07/25 10:05:30;;;;;;;6.33;1.83;;;27.30;64.60;;;;;;4998249;28;20195;-81
2023/07/25 10:07:57;;;;;;;5.10;1.70;;;27.30;64.10;;;;;;4997285;28;20505;-82
2023/07/25 10:10:24;;;;;;;3.63;2.03;;;27.30;62.50;;;;;;4996363;28;20773;-82
2023/07/25 10:12:49;;;;;;;5.10;2.17;;;27.50;62.00;;;;;;4996616;28;20757;-82
2023/07/25 10:15:15;;;;;;;3.73;1.60;;;27.60;79.20;;;;;;4998115;28;20481;-82
2023/07/25 10:17:40;;;;;;;4.13;1.83;;;27.70;61.10;;;;;;5063876;28;20209;-82
2023/07/25 10:20:07;;;;;;;4.50;2.27;;;28.10;63.50;;;;;;4996096;28;20381;-82
2023/07/25 10:22:37;;;;;;;4.43;1.70;;;28.50;62.80;;;;;;4996277;28;20201;-82
2023/07/25 10:25:17;;;;;;;5.20;2.23;;;29.20;63.30;;;;;;4998157;28;20469;-81
2023/07/25 10:27:42;;;;;;;2.83;1.67;;;30.20;66.70;;;;;;4997146;28;20430;-82
2023/07/25 10:30:25;;;;;;;4.63;1.60;;;32.70;1.00;;;;;;4997399;28;20407;-82
2023/07/25 10:32:53;;;;;;;2.97;1.40;;;34.40;1.00;;;;;;4997827;28;20183;-82
2023/07/25 10:35:54;;;;;;;4.97;1.87;;;34.00;1.00;;;;;;4998400;28;20441;-82
2023/07/25 10:38:33;;;;;;;3.77;1.40;;;33.90;1.00;;;;;;4997933;28;20442;-82
2023/07/25 10:41:08;;;;;;;6.17;2.43;;;33.40;1.00;;;;;;5001358;28;20493;-82
2023/07/25 10:43:46;;;;;;;8.80;1.60;;;32.70;1.00;;;;;;4999902;28;20418;-81
2023/07/25 10:46:14;;;;;;;5.53;1.50;;;32.20;1.00;;;;;;5030212;28;20462;-81
2023/07/25 10:48:51;;;;;;;3.43;1.20;;;31.50;1.00;;;;;;5001620;28;20411;-81
2023/07/25 10:51:19;;;;;;;4.40;1.53;;;30.80;1.00;;;;;;4999951;28;20403;-82
2023/07/25 10:54:08;;;;;;;8.50;1.70;;;30.10;1.00;;;;;;4999680;28;20425;-82
2023/07/25 10:56:33;;;;;;;4.77;1.50;;;29.70;1.00;;;;;;4999624;28;20515;-82
2023/07/25 10:59:04;;;;;;;4.37;1.60;;;29.50;1.00;;;;;;5000053;28;20454;-82
2023/07/25 11:01:39;;;;;;;3.70;1.60;;;29.30;1.00;;;;;;4999876;28;20229;-83
2023/07/25 11:04:26;;;;;;;4.53;1.77;;;29.30;1.00;;;;;;5000714;28;20410;-83
2023/07/25 11:06:53;;;;;;;3.10;1.63;;;29.00;1.00;;;;;;5000311;28;20839;-82
2023/07/25 11:09:20;;;;;;;5.00;1.40;;;29.00;1.00;;;;;;4999841;28;20973;-81
2023/07/25 11:11:48;;;;;;;5.60;1.50;;;29.00;1.00;;;;;;4998829;28;20411;-81
2023/07/25 11:14:15;;;;;;;3.50;1.57;;;28.90;1.00;;;;;;4999610;28;20403;-82
2023/07/25 11:16:42;;;;;;;3.37;1.77;;;28.90;1.00;;;;;;4999030;28;20439;-82
2023/07/25 11:19:09;;;;;;;4.90;2.07;;;29.30;1.00;;;;;;4999445;28;20633;-81
2023/07/25 11:21:40;;;;;;;3.90;1.50;;;29.40;1.00;;;;;;4999207;28;20418;-82
2023/07/25 11:24:07;;;;;;;11.73;1.87;;;29.80;1.00;;;;;;4999198;28;20422;-82
2023/07/25 11:26:33;;;;;;;6.00;1.80;;;29.50;1.00;;;;;;4999057;28;20765;-82
2023/07/25 11:29:03;;;;;;;5.83;2.30;;;29.00;1.00;;;;;;4998937;28;20467;-82
2023/07/25 11:31:29;;;;;;;4.27;2.17;;;28.10;1.00;;;;;;4998847;28;20505;-82
2023/07/25 11:33:54;;;;;;;8.33;2.03;;;27.40;47.50;;;;;;4999344;28;20419;-82
2023/07/25 11:36:21;;;;;;;3.80;1.67;;;26.90;29.10;;;;;;4998535;28;20271;-82
2023/07/25 11:38:46;;;;;;;6.77;2.17;;;26.10;28.30;;;;;;4998159;28;20199;-82
2023/07/25 11:41:12;;;;;;;6.20;2.30;;;25.30;27.40;;;;;;4998683;28;20460;-81
2023/07/25 11:43:38;;;;;;;5.60;2.80;;;24.80;28.40;;;;;;4998300;28;20229;-82
2023/07/25 11:46:04;;;;;;;8.10;2.40;;;24.30;29.60;;;;;;5029221;28;20198;-82
2023/07/25 11:48:30;;;;;;;6.80;3.80;;;23.90;36.20;;;;;;5080516;28;20466;-81
2023/07/25 11:50:57;;;;;;;9.53;3.67;;;23.40;34.40;;;;;;5081985;28;20174;-82
2023/07/25 11:53:27;;;;;;;7.20;4.10;;;23.00;38.50;;;;;;5080694;28;20412;-81
2023/07/25 11:55:54;;;;;;;9.90;4.20;;;22.80;44.20;;;;;;5080805;28;20420;-82
2023/07/25 11:58:21;;;;;;;6.57;3.53;;;22.70;50.90;;;;;;5081688;28;20438;-81
2023/07/25 12:00:51;;;;;;;7.33;3.43;;;22.50;71.00;;;;;;5080625;28;20659;-81
2023/07/25 12:03:25;;;;;;;5.87;3.13;;;22.40;91.00;;;;;;5080403;28;20439;-81
2023/07/25 12:05:59;;;;;;;6.23;3.80;;;22.30;98.60;;;;;;5081067;28;20462;-82
2023/07/25 12:08:44;;;;;;;6.70;3.00;;;22.30;99.10;;;;;;5079907;28;20437;-82
2023/07/25 12:11:14;;;;;;;9.10;3.20;;;22.40;99.90;;;;;;5079798;28;20968;-81
2023/07/25 12:13:46;;;;;;;6.30;2.73;;;22.50;99.90;;;;;;5079956;28;20472;-82
2023/07/25 12:16:25;;;;;;;7.00;2.80;;;22.60;98.30;;;;;;5044200;28;20784;-81
2023/07/25 12:18:52;;;;;;;6.60;2.90;;;22.70;99.50;;;;;;4998097;28;20487;-82
2023/07/25 12:21:30;;;;;;;10.70;3.00;;;23.00;96.00;;;;;;4997294;28;20422;-82
2023/07/25 12:24:01;;;;;;;3.83;2.20;;;23.40;93.60;;;;;;4999121;28;20413;-81
2023/07/25 12:26:28;;;;;;;6.60;2.60;;;23.70;93.70;;;;;;4996991;28;20609;-80
2023/07/25 12:28:54;;;;;;;6.80;2.07;;;24.40;92.50;;;;;;4998021;28;20415;-82
2023/07/25 12:31:21;;;;;;;5.70;2.10;;;25.70;92.60;;;;;;4997743;28;20533;-82
2023/07/25 12:33:49;;;;;;;4.20;1.43;;;27.20;92.50;;;;;;4998617;28;20415;-82
2023/07/25 12:36:17;;;;;;;7.37;2.07;;;27.60;87.30;;;;;;4997725;28;20422;-82
2023/07/25 12:38:42;;;;;;;4.27;1.80;;;27.70;83.10;;;;;;4997180;28;20415;-82
2023/07/25 12:41:08;;;;;;;5.40;1.90;;;27.50;76.30;;;;;;4999012;28;20425;-82
2023/07/25 12:43:34;;;;;;;4.27;1.67;;;27.40;73.00;;;;;;4997783;28;20419;-81
2023/07/25 12:46:00;;;;;;;4.83;2.00;;;27.40;71.50;;;;;;5012415;28;20196;-82